Overview Statistics Trail Chart Weather Telemetry Raw packets
 

This is the latest recevied weather packets stored in our database for station/object KV4OP. If no packets are shown the sender has not sent any weather packets the latest 10 day(s).

<< 13 14 15 16 17 18 19 >>
Time Temp. Humidity Pressure Rain* Wind** Luminosity Snow
1788559522 27.22° C 94% 1014.9 hPa 3.05 mm - - -
1788559237 27.22° C 94% 1014.8 hPa 5.59 mm - - -
1788558919 26.67° C 94% 1014.9 hPa 5.84 mm - - -
1788558623 27.22° C 95% 1014.6 hPa 5.84 mm - - -
1788558329 26.67° C 94% 1014 hPa 5.84 mm - - -
1788558033 26.67° C 94% 1013.7 hPa 5.84 mm - - -
1788557726 26.67° C 94% 1014.2 hPa 5.84 mm - - -
1788557428 26.67° C 94% 1014.1 hPa 5.84 mm - - -
1788557123 26.67° C 93% 1014 hPa 5.84 mm - - -
1788556832 26.67° C 92% 1014.1 hPa 5.33 mm - - -
1788556524 26.67° C 90% 1014.5 hPa 3.56 mm - - -
1788556222 27.22° C 88% 1014.6 hPa 3.56 mm - - -
1788555919 28.89° C 85% 1014.6 hPa 2.54 mm - - -
1788555631 30.56° C 81% 1014.2 hPa 0.25 mm - - -
1788555308 31.67° C 78% 1013.9 hPa 0 mm - - -
1788555008 32.78° C 76% 1014.1 hPa 0 mm - - -
1788554708 32.78° C 74% 1013.8 hPa 0 mm - - -
1788554417 33.33° C 73% 1013.9 hPa 0 mm - - -
1788554108 33.89° C 73% 1013.8 hPa 0 mm - - -
1788553808 33.89° C 70% 1013.6 hPa 0 mm - - -
1788553509 34.44° C 70% 1013.5 hPa 0 mm - - -
1788553217 34.44° C 73% 1013.5 hPa 0 mm - - -
1788552908 34.44° C 70% 1013.7 hPa 0 mm - - -
1788552608 34.44° C 70% 1013.7 hPa 0 mm - - -
1788552309 33.89° C 72% 1013.7 hPa 0 mm - - -

* Rain latest hour (hover to see other rain measurements)
** Current wind speed in m/s (hover to see current wind gust speed)